Time;durP1;ratioP1;P1;durP2;ratioP2;P2;SDS_P1;SDS_P2;PMS_P1;PMS_P2;Temp;Humidity;BMP_temperature;BMP_pressure;BME280_temperature;BME280_humidity;BME280_pressure;Samples;Min_cycle;Max_cycle;Signal;HPM_P1;HPM_P2
2022/06/29 00:01:15;;;;;;;0.82;0.82;;;;;;;24.10;40.72;101218.81;5036090;28;20471;-67
2022/06/29 00:03:41;;;;;;;0.80;0.80;;;;;;;24.08;41.29;101210.03;5053381;28;20036;-65
2022/06/29 00:06:06;;;;;;;0.60;0.60;;;;;;;24.09;41.08;101204.31;5053895;28;20021;-65
2022/06/29 00:08:32;;;;;;;0.80;0.80;;;;;;;24.07;40.56;101203.75;5053595;28;20021;-65
2022/06/29 00:10:57;;;;;;;0.73;0.73;;;;;;;24.08;40.48;101204.59;5053836;28;20032;-66
2022/06/29 00:13:22;;;;;;;0.80;0.80;;;;;;;24.06;40.60;101204.84;5053405;28;20025;-67
2022/06/29 00:15:48;;;;;;;0.70;0.70;;;;;;;24.05;40.24;101205.91;5053374;28;20028;-65
2022/06/29 00:18:13;;;;;;;0.80;0.80;;;;;;;24.06;40.65;101204.00;5053489;28;20021;-65
2022/06/29 00:20:39;;;;;;;0.80;0.80;;;;;;;24.06;40.50;101201.25;5052996;28;20083;-67
2022/06/29 00:23:04;;;;;;;0.80;0.80;;;;;;;24.05;40.36;101197.72;5053661;28;20083;-65
2022/06/29 00:25:30;;;;;;;0.70;0.70;;;;;;;24.05;40.19;101192.25;5053163;28;20068;-65
2022/06/29 00:27:55;;;;;;;0.80;0.80;;;;;;;24.06;40.27;101199.38;5053340;28;20031;-65
2022/06/29 00:30:21;;;;;;;0.80;0.80;;;;;;;24.06;40.13;101195.81;5053736;28;20033;-65
2022/06/29 00:32:46;;;;;;;0.73;0.73;;;;;;;24.05;39.60;101192.25;5053114;28;20025;-66
2022/06/29 00:35:11;;;;;;;0.80;0.80;;;;;;;24.04;39.90;101201.53;5054520;28;20028;-65
2022/06/29 00:37:37;;;;;;;0.70;0.70;;;;;;;24.04;40.00;101196.06;5072217;28;20021;-67
2022/06/29 00:40:03;;;;;;;0.80;0.80;;;;;;;24.04;40.08;101192.50;5071942;28;20029;-66
2022/06/29 00:42:30;;;;;;;0.75;0.75;;;;;;;24.03;39.99;101175.31;5072584;28;20033;-66
2022/06/29 00:44:55;;;;;;;0.70;0.70;;;;;;;24.02;39.54;101181.84;5073085;28;20386;-66
2022/06/29 00:47:22;;;;;;;0.70;0.70;;;;;;;24.03;39.62;101169.03;5073572;28;20024;-66
2022/06/29 00:49:47;;;;;;;0.70;0.70;;;;;;;24.02;39.52;101172.84;5073376;28;20024;-65
2022/06/29 00:52:13;;;;;;;1.10;0.88;;;;;;;24.01;39.44;101166.56;5073224;28;20021;-66
2022/06/29 00:54:43;;;;;;;0.80;0.80;;;;;;;24.02;40.06;101172.84;5073363;28;20045;-66
2022/06/29 00:57:22;;;;;;;0.70;0.70;;;;;;;24.00;39.40;101175.81;5073290;28;20029;-66
2022/06/29 00:59:49;;;;;;;0.70;0.70;;;;;;;24.01;39.20;101169.28;5073269;28;20099;-66
2022/06/29 01:02:16;;;;;;;0.60;0.60;;;;;;;23.99;38.88;101174.16;5073218;28;20131;-66
2022/06/29 01:04:41;;;;;;;0.63;0.60;;;;;;;24.00;38.57;101175.81;5073690;28;20029;-67
2022/06/29 01:07:07;;;;;;;0.50;0.50;;;;;;;24.00;38.39;101173.91;5072853;28;20033;-65
2022/06/29 01:09:33;;;;;;;0.70;0.70;;;;;;;24.00;38.88;101170.38;5072832;28;20033;-65
2022/06/29 01:11:59;;;;;;;0.60;0.60;;;;;;;24.00;38.69;101186.75;5072353;28;20056;-65
2022/06/29 01:14:24;;;;;;;0.70;0.70;;;;;;;24.00;38.63;101176.66;5072857;28;20471;-65
2022/06/29 01:16:49;;;;;;;0.70;0.70;;;;;;;23.99;38.62;101174.16;5073002;28;20041;-66
2022/06/29 01:19:15;;;;;;;0.70;0.70;;;;;;;23.99;38.70;101164.09;5072734;28;20024;-66
2022/06/29 01:21:41;;;;;;;0.60;0.60;;;;;;;23.99;38.52;101169.56;5073059;28;20020;-67
2022/06/29 01:24:06;;;;;;;0.80;0.80;;;;;;;23.97;38.45;101171.72;5071515;28;20098;-66
2022/06/29 01:26:32;;;;;;;0.73;0.60;;;;;;;23.98;38.25;101172.53;5073025;28;20021;-66
2022/06/29 01:28:57;;;;;;;0.88;0.77;;;;;;;23.99;38.67;101174.16;5072628;28;20032;-66
2022/06/29 01:31:22;;;;;;;0.60;0.60;;;;;;;23.97;38.15;101171.72;5075193;28;20032;-66
2022/06/29 01:33:48;;;;;;;0.70;0.70;;;;;;;23.97;38.24;101159.97;5076697;28;20043;-66
2022/06/29 01:36:14;;;;;;;0.60;0.60;;;;;;;23.97;38.40;101159.97;5068014;28;20053;-66
2022/06/29 01:38:40;;;;;;;0.60;0.60;;;;;;;23.97;38.32;101162.69;5056650;28;20036;-66
2022/06/29 01:41:07;;;;;;;0.70;0.70;;;;;;;23.97;38.37;101168.16;5056659;28;20409;-67
2022/06/29 01:43:32;;;;;;;0.60;0.60;;;;;;;23.95;38.05;101165.66;5056216;28;20530;-66
2022/06/29 01:45:58;;;;;;;0.60;0.60;;;;;;;23.95;37.77;101156.66;5056147;28;20063;-66
2022/06/29 01:48:24;;;;;;;1.20;1.10;;;;;;;23.95;38.12;101162.13;5056106;28;20029;-66
2022/06/29 01:50:49;;;;;;;0.50;0.50;;;;;;;23.95;38.25;101167.59;5056428;28;20025;-65
2022/06/29 01:53:15;;;;;;;0.70;0.70;;;;;;;23.96;38.32;101172.78;5055956;28;20108;-66
2022/06/29 01:55:40;;;;;;;0.70;0.70;;;;;;;23.95;37.90;101173.03;5056449;28;20032;-66
2022/06/29 01:58:05;;;;;;;0.70;0.70;;;;;;;23.94;37.67;101166.78;5056343;28;20471;-66
2022/06/29 02:00:31;;;;;;;0.70;0.70;;;;;;;23.95;37.97;101183.97;5055924;28;20021;-66
2022/06/29 02:02:56;;;;;;;0.70;0.70;;;;;;;23.95;37.93;101178.50;5055872;28;20040;-66
2022/06/29 02:05:22;;;;;;;0.68;0.68;;;;;;;23.94;38.01;101165.94;5055838;28;20048;-66
2022/06/29 02:07:47;;;;;;;0.68;0.68;;;;;;;23.94;37.71;101163.19;5056130;28;20017;-66
2022/06/29 02:10:13;;;;;;;0.70;0.70;;;;;;;23.92;37.64;101163.47;5056196;28;20029;-66
2022/06/29 02:12:38;;;;;;;0.60;0.60;;;;;;;23.93;37.83;101159.66;5056195;28;20490;-66
2022/06/29 02:15:05;;;;;;;0.50;0.50;;;;;;;23.93;37.84;101162.38;5055955;28;20025;-66
2022/06/29 02:17:30;;;;;;;0.65;0.65;;;;;;;23.91;37.66;101156.38;5056047;28;20099;-66
2022/06/29 02:19:55;;;;;;;0.60;0.60;;;;;;;23.91;37.72;101166.47;5055602;28;20021;-66
2022/06/29 02:22:21;;;;;;;0.60;0.60;;;;;;;23.94;38.17;101171.38;5055732;28;20033;-66
2022/06/29 02:24:46;;;;;;;0.70;0.70;;;;;;;23.90;37.50;101171.09;5055375;28;20048;-66
2022/06/29 02:27:12;;;;;;;0.60;0.60;;;;;;;23.92;37.71;101165.38;5055331;28;20022;-66
2022/06/29 02:29:37;;;;;;;0.80;0.80;;;;;;;23.91;37.58;101166.47;5055402;28;20033;-66
2022/06/29 02:34:47;;;;;;;;;;;;;;;24.07;37.65;101176.44;5056096;28;20032;-66
2022/06/29 02:37:14;;;;;;;0.70;0.70;;;;;;;23.94;37.80;101174.13;5071126;28;19908;-65
2022/06/29 02:39:39;;;;;;;0.60;0.60;;;;;;;23.91;37.61;101174.66;5076208;28;20078;-66
2022/06/29 02:42:05;;;;;;;0.77;0.77;;;;;;;23.91;37.86;101171.94;5074495;28;20032;-66
2022/06/29 02:44:30;;;;;;;0.70;0.70;;;;;;;23.90;37.57;101173.00;5075436;28;20091;-66
2022/06/29 02:46:56;;;;;;;0.60;0.60;;;;;;;23.87;37.86;101166.16;5075462;28;20450;-66
2022/06/29 02:49:21;;;;;;;0.63;0.63;;;;;;;23.91;37.98;101171.94;5075352;28;20103;-66
2022/06/29 02:51:47;;;;;;;0.60;0.60;;;;;;;23.89;37.65;101171.38;5075098;28;20415;-66
2022/06/29 02:54:12;;;;;;;0.68;0.68;;;;;;;23.88;37.81;101172.44;5075511;28;20031;-66
2022/06/29 02:56:38;;;;;;;0.63;0.63;;;;;;;23.89;37.95;101179.56;5074953;28;20029;-66
2022/06/29 02:59:03;;;;;;;0.60;0.60;;;;;;;23.89;37.93;101183.09;5075799;28;20025;-66
2022/06/29 03:01:29;;;;;;;0.70;0.70;;;;;;;23.89;37.69;101180.38;5074284;28;20475;-66
2022/06/29 03:03:55;;;;;;;0.70;0.70;;;;;;;23.90;37.65;101175.72;5075308;28;20490;-66
2022/06/29 03:06:20;;;;;;;0.80;0.80;;;;;;;23.86;37.82;101174.59;5075720;28;20029;-66
2022/06/29 03:08:45;;;;;;;0.60;0.60;;;;;;;23.88;38.38;101183.34;5076095;28;20410;-66
2022/06/29 03:11:11;;;;;;;0.77;0.77;;;;;;;23.86;38.19;101191.78;5075283;28;20340;-66
2022/06/29 03:13:37;;;;;;;0.70;0.70;;;;;;;23.87;38.08;101192.63;5075777;28;20067;-66
2022/06/29 03:16:02;;;;;;;1.00;0.80;;;;;;;23.85;38.45;101192.88;5075696;28;20093;-65
2022/06/29 03:18:28;;;;;;;0.70;0.70;;;;;;;23.86;38.23;101185.53;5074471;28;20051;-66
2022/06/29 03:20:53;;;;;;;0.80;0.80;;;;;;;23.84;38.18;101176.78;5074729;28;20027;-66
2022/06/29 03:23:19;;;;;;;0.82;0.82;;;;;;;23.79;38.22;101181.06;5074377;28;20025;-66
2022/06/29 03:25:44;;;;;;;0.60;0.60;;;;;;;23.80;38.60;101181.88;5074320;28;20041;-66
2022/06/29 03:28:09;;;;;;;0.88;0.88;;;;;;;23.80;38.39;101176.41;5074585;28;20093;-66
2022/06/29 03:30:35;;;;;;;0.70;0.70;;;;;;;23.76;38.42;101173.38;5074952;28;20032;-66
2022/06/29 03:33:00;;;;;;;0.80;0.80;;;;;;;23.78;38.43;101167.66;5072948;28;20101;-66
2022/06/29 03:35:26;;;;;;;1.42;0.80;;;;;;;23.79;38.39;101172.88;5074374;28;20035;-66
2022/06/29 03:37:51;;;;;;;0.95;0.95;;;;;;;23.80;38.83;101179.97;5055004;28;20029;-66
2022/06/29 03:40:17;;;;;;;0.65;0.65;;;;;;;23.81;38.37;101184.38;5055810;28;20025;-66
2022/06/29 03:42:42;;;;;;;0.70;0.70;;;;;;;23.83;38.65;101196.94;5054671;28;20032;-66
2022/06/29 03:45:08;;;;;;;0.77;0.77;;;;;;;23.81;38.86;101192.56;5054016;28;20372;-65
2022/06/29 03:47:34;;;;;;;0.70;0.70;;;;;;;23.81;38.65;101195.28;5055356;28;20029;-66
2022/06/29 03:49:59;;;;;;;0.90;0.90;;;;;;;23.79;38.87;101185.69;5054929;28;20460;-66
2022/06/29 03:52:25;;;;;;;1.15;0.85;;;;;;;23.79;38.70;101191.16;5054098;28;20368;-67
2022/06/29 03:54:50;;;;;;;0.80;0.80;;;;;;;23.79;38.86;101186.50;5052969;28;20490;-66
2022/06/29 03:57:15;;;;;;;0.80;0.80;;;;;;;23.80;38.80;101190.06;5053523;28;20490;-66
2022/06/29 03:59:41;;;;;;;0.80;0.80;;;;;;;23.79;38.94;101186.50;5053578;28;20032;-66
2022/06/29 04:02:06;;;;;;;0.70;0.70;;;;;;;23.81;38.82;101187.09;5053575;28;20017;-66
2022/06/29 04:04:32;;;;;;;0.80;0.80;;;;;;;23.85;38.99;101189.31;5053682;28;20025;-66
2022/06/29 04:06:57;;;;;;;1.25;0.80;;;;;;;23.85;38.96;101192.06;5053605;28;20462;-66
2022/06/29 04:09:23;;;;;;;0.63;0.63;;;;;;;23.87;38.86;101181.69;5053395;28;20025;-66
2022/06/29 04:11:48;;;;;;;0.77;0.77;;;;;;;23.89;38.63;101185.84;5053291;28;20083;-66
2022/06/29 04:14:17;;;;;;;1.02;0.93;;;;;;;23.93;39.27;101191.59;5053405;28;20024;-66
2022/06/29 04:16:42;;;;;;;0.77;0.77;;;;;;;23.93;38.77;101191.59;5053932;28;20028;-66
2022/06/29 04:19:08;;;;;;;0.77;0.77;;;;;;;23.93;38.97;101191.59;5053182;28;20024;-66
2022/06/29 04:21:33;;;;;;;0.80;0.80;;;;;;;23.92;38.96;101184.47;5053489;28;20029;-66
2022/06/29 04:23:59;;;;;;;0.80;0.80;;;;;;;23.96;38.94;101189.16;5052813;28;20082;-66
2022/06/29 04:26:24;;;;;;;0.70;0.70;;;;;;;23.95;39.13;101190.25;5053363;28;20020;-66
2022/06/29 04:28:50;;;;;;;0.70;0.70;;;;;;;23.95;38.89;101186.69;5053008;28;20111;-66
2022/06/29 04:31:15;;;;;;;0.70;0.70;;;;;;;23.94;39.07;101193.22;5053607;28;20029;-66
2022/06/29 04:33:41;;;;;;;0.60;0.60;;;;;;;23.99;39.06;101190.53;5053705;28;20020;-66
2022/06/29 04:36:06;;;;;;;0.60;0.60;;;;;;;23.96;38.85;101186.44;5057546;28;20409;-65
2022/06/29 04:38:32;;;;;;;0.75;0.75;;;;;;;23.99;39.14;101196.00;5072955;28;20025;-65
2022/06/29 04:40:59;;;;;;;0.70;0.70;;;;;;;23.99;39.05;101188.66;5072892;28;20020;-65
2022/06/29 04:43:27;;;;;;;0.70;0.70;;;;;;;24.00;39.00;101189.47;5073102;28;20036;-67
2022/06/29 04:48:36;;;;;;;0.60;0.60;;;;;;;24.01;38.93;101188.41;5072780;28;20031;-65
2022/06/29 04:51:02;;;;;;;0.80;0.80;;;;;;;24.05;38.97;101186.78;5072728;28;20028;-65
2022/06/29 04:53:27;;;;;;;0.60;0.60;;;;;;;23.98;39.00;101184.28;5072864;28;20111;-65
2022/06/29 04:55:53;;;;;;;0.65;0.65;;;;;;;24.00;39.27;101186.75;5072954;28;20379;-66
2022/06/29 04:58:18;;;;;;;0.60;0.60;;;;;;;24.06;39.00;101180.25;5072963;28;20052;-66
2022/06/29 05:00:44;;;;;;;0.77;0.68;;;;;;;24.05;39.02;101178.59;5072665;28;20028;-66
2022/06/29 05:03:09;;;;;;;0.70;0.70;;;;;;;24.03;39.37;101175.31;5072998;28;20040;-65
2022/06/29 05:05:35;;;;;;;0.80;0.80;;;;;;;24.10;39.14;101184.13;5073509;28;20032;-65
2022/06/29 05:08:00;;;;;;;0.68;0.68;;;;;;;24.06;39.02;101180.25;5076828;28;20374;-65
2022/06/29 05:10:25;;;;;;;0.68;0.68;;;;;;;24.09;39.06;101182.47;5076907;28;20074;-65
2022/06/29 05:12:51;;;;;;;0.88;0.80;;;;;;;24.13;38.91;101174.59;5076768;28;20024;-65
2022/06/29 05:15:16;;;;;;;0.80;0.80;;;;;;;24.21;39.09;101178.75;5076711;28;20086;-65
2022/06/29 05:17:42;;;;;;;1.25;0.70;;;;;;;24.22;38.97;101181.22;5076425;28;20031;-65
2022/06/29 05:20:08;;;;;;;0.90;0.70;;;;;;;24.24;38.86;101181.78;5076767;28;20021;-65
2022/06/29 05:22:34;;;;;;;9.57;3.85;;;;;;;24.25;38.81;101175.25;5076717;28;20481;-65
2022/06/29 05:24:59;;;;;;;28.05;10.27;;;;;;;24.28;38.82;101182.09;5076427;28;20060;-65
2022/06/29 05:27:25;;;;;;;19.50;7.50;;;;;;;24.27;38.87;101170.34;5076743;28;20024;-66
2022/06/29 05:29:50;;;;;;;12.50;5.15;;;;;;;24.30;39.15;101174.44;5076343;28;20154;-65
2022/06/29 05:32:16;;;;;;;11.95;5.57;;;;;;;24.31;39.08;101168.72;5076058;28;20025;-65
2022/06/29 05:34:41;;;;;;;12.02;5.30;;;;;;;24.33;39.21;101174.75;5074975;28;20040;-65
2022/06/29 05:37:07;;;;;;;8.70;3.70;;;;;;;24.37;39.08;101175.06;5064656;28;20048;-65
2022/06/29 05:39:32;;;;;;;9.27;3.50;;;;;;;24.35;39.35;101175.34;5054566;28;20025;-65
2022/06/29 05:41:58;;;;;;;5.50;2.78;;;;;;;24.40;39.06;101169.06;5054868;28;20090;-68
2022/06/29 05:44:23;;;;;;;5.80;2.30;;;;;;;24.41;38.89;101176.19;5056232;28;20032;-68
2022/06/29 05:46:49;;;;;;;5.32;2.92;;;;;;;24.40;39.24;101177.25;5055815;28;20037;-68
2022/06/29 05:49:14;;;;;;;7.40;3.50;;;;;;;24.41;39.47;101168.00;5056064;28;20029;-68
2022/06/29 05:51:40;;;;;;;8.55;3.67;;;;;;;24.44;38.99;101170.22;5055743;28;20490;-68
2022/06/29 05:54:05;;;;;;;5.78;2.35;;;;;;;24.36;39.15;101157.84;5055830;28;20032;-69
2022/06/29 05:56:30;;;;;;;6.05;2.30;;;;;;;24.42;39.39;101164.16;5055278;28;20091;-69
2022/06/29 05:58:56;;;;;;;3.35;2.05;;;;;;;24.45;39.63;101160.09;5056240;28;20028;-69
2022/06/29 06:01:21;;;;;;;3.20;1.80;;;;;;;24.51;39.25;101159.06;5055294;28;20029;-69
2022/06/29 06:03:47;;;;;;;3.85;1.98;;;;;;;24.47;39.65;101164.19;5055216;28;20029;-69
2022/06/29 06:06:12;;;;;;;2.90;1.48;;;;;;;24.48;39.33;101154.13;5055474;28;20079;-69
2022/06/29 06:08:38;;;;;;;2.38;1.52;;;;;;;24.49;39.31;101156.59;5056008;28;20033;-69
2022/06/29 06:11:03;;;;;;;1.98;1.45;;;;;;;24.40;39.40;101163.59;5055235;28;20502;-70
2022/06/29 06:13:29;;;;;;;3.13;1.48;;;;;;;24.47;39.98;101149.72;5055211;28;20021;-69
2022/06/29 06:15:54;;;;;;;3.15;1.52;;;;;;;24.55;39.34;101155.56;5055420;28;20024;-70
2022/06/29 06:18:20;;;;;;;2.25;1.58;;;;;;;24.57;39.34;101154.47;5053001;28;20025;-69
2022/06/29 06:20:46;;;;;;;3.75;1.80;;;;;;;24.54;39.58;101151.19;5055285;28;20082;-70
2022/06/29 06:23:11;;;;;;;2.92;1.23;;;;;;;24.58;39.42;101153.38;5054765;28;20442;-68
2022/06/29 06:25:36;;;;;;;2.38;1.40;;;;;;;24.57;39.78;101149.00;5054684;28;20060;-68
2022/06/29 06:28:02;;;;;;;3.50;1.40;;;;;;;24.56;39.65;101148.19;5055252;28;20029;-67
2022/06/29 06:30:27;;;;;;;1.70;1.20;;;;;;;24.55;39.61;101149.28;5055232;28;20427;-67
2022/06/29 06:32:53;;;;;;;4.78;1.73;;;;;;;24.50;40.28;101152.75;5054568;28;20025;-67
2022/06/29 06:35:19;;;;;;;2.63;1.30;;;;;;;24.45;39.88;101160.91;5055049;28;20139;-67
2022/06/29 06:37:46;;;;;;;1.88;1.50;;;;;;;24.43;40.44;101157.63;5068798;28;20485;-67
2022/06/29 06:42:55;;;;;;;;;;;;;;;24.41;40.56;101154.34;5075359;28;20112;-67
2022/06/29 06:45:21;;;;;;;1.67;1.40;;;;;;;24.36;40.93;101157.03;5074604;28;19912;-66
2022/06/29 06:47:47;;;;;;;1.85;1.45;;;;;;;24.34;41.13;101159.19;5073686;28;20277;-67
2022/06/29 06:50:12;;;;;;;4.88;2.40;;;;;;;24.35;41.05;101161.69;5074608;28;20028;-66
2022/06/29 06:52:38;;;;;;;3.45;2.20;;;;;;;24.36;41.27;101157.03;5074269;28;20024;-67
2022/06/29 06:55:03;;;;;;;5.47;2.45;;;;;;;24.33;41.00;101152.06;5074676;28;20025;-67
2022/06/29 06:57:29;;;;;;;2.95;2.03;;;;;;;24.38;41.42;101152.13;5075037;28;20028;-67
2022/06/29 06:59:54;;;;;;;1.60;1.50;;;;;;;24.31;41.56;101154.25;5074642;28;20383;-67
2022/06/29 07:02:20;;;;;;;1.65;1.52;;;;;;;24.34;41.76;101153.75;5074332;28;20451;-67
2022/06/29 07:04:46;;;;;;;2.13;1.50;;;;;;;24.31;41.78;101148.78;5072762;28;20020;-67
2022/06/29 07:07:13;;;;;;;1.85;1.65;;;;;;;24.43;41.38;101156.81;5074362;28;20029;-67
2022/06/29 07:09:38;;;;;;;3.15;1.65;;;;;;;24.43;41.46;101151.34;5074304;28;20021;-67
2022/06/29 07:12:04;;;;;;;3.75;1.52;;;;;;;24.40;41.83;101146.41;5073948;28;20030;-68
2022/06/29 07:14:30;;;;;;;2.83;1.85;;;;;;;24.37;41.65;101147.75;5074133;28;20035;-67
2022/06/29 07:16:56;;;;;;;2.15;1.80;;;;;;;24.41;41.82;101143.41;5074137;28;20115;-68
2022/06/29 07:19:22;;;;;;;3.42;1.98;;;;;;;24.49;41.60;101148.38;5074218;28;20429;-67
2022/06/29 07:21:47;;;;;;;3.88;1.75;;;;;;;24.50;41.84;101146.47;5074187;28;20471;-67
2022/06/29 07:24:15;;;;;;;2.28;1.50;;;;;;;24.43;41.71;101140.41;5073608;28;20471;-67
2022/06/29 07:26:40;;;;;;;2.08;1.40;;;;;;;24.49;41.80;101140.19;5074195;28;20029;-67
2022/06/29 07:29:06;;;;;;;3.15;1.40;;;;;;;24.46;41.72;101137.16;5073940;28;20371;-68
2022/06/29 07:31:31;;;;;;;4.85;2.53;;;;;;;24.45;41.88;101147.25;5074349;28;20391;-67
2022/06/29 07:33:57;;;;;;;6.20;2.10;;;;;;;24.48;41.77;101146.72;5073831;28;20024;-67
2022/06/29 07:36:23;;;;;;;3.22;1.60;;;;;;;24.47;41.97;101144.25;5070169;28;20040;-67
2022/06/29 07:38:49;;;;;;;3.33;1.83;;;;;;;24.61;41.94;101141.91;5053518;28;20056;-68
2022/06/29 07:41:15;;;;;;;2.78;1.67;;;;;;;24.48;42.10;101140.44;5053847;28;20029;-67
2022/06/29 07:43:40;;;;;;;1.60;1.50;;;;;;;24.54;42.21;101143.00;5053783;28;20040;-68
2022/06/29 07:46:06;;;;;;;1.90;1.45;;;;;;;24.54;42.29;101143.00;5053546;28;20371;-67
2022/06/29 07:48:31;;;;;;;1.50;1.40;;;;;;;24.49;42.08;101151.13;5053226;28;20029;-68
2022/06/29 07:50:57;;;;;;;1.80;1.60;;;;;;;24.56;42.21;101145.47;5053186;28;20021;-68
2022/06/29 07:53:22;;;;;;;1.73;1.50;;;;;;;24.57;42.32;101144.34;5053581;28;20028;-68
2022/06/29 07:55:47;;;;;;;1.50;1.40;;;;;;;24.59;42.42;101144.09;5053055;28;20028;-67
2022/06/29 07:58:14;;;;;;;1.52;1.30;;;;;;;24.56;42.45;101140.00;5053404;28;20079;-67
2022/06/29 08:00:39;;;;;;;1.65;1.55;;;;;;;24.65;42.26;101137.59;5053340;28;20037;-67
2022/06/29 08:03:05;;;;;;;1.52;1.42;;;;;;;24.64;42.33;101141.41;5052819;28;20024;-67
2022/06/29 08:05:30;;;;;;;1.48;1.20;;;;;;;24.60;42.33;101130.19;5053630;28;20489;-68
2022/06/29 08:07:56;;;;;;;1.83;1.40;;;;;;;24.55;42.25;101136.44;5053134;28;20027;-68
2022/06/29 08:10:21;;;;;;;2.40;1.20;;;;;;;24.57;42.51;101141.63;5053333;28;20032;-68
2022/06/29 08:12:46;;;;;;;1.30;1.10;;;;;;;24.59;42.40;101131.25;5053317;28;20471;-68
2022/06/29 08:15:12;;;;;;;1.40;1.30;;;;;;;24.57;42.52;101135.34;5055147;28;20021;-69
2022/06/29 08:17:38;;;;;;;1.40;1.30;;;;;;;24.55;42.79;101139.16;5053135;28;20100;-67
2022/06/29 08:20:04;;;;;;;1.40;1.30;;;;;;;24.56;42.58;101140.00;5052705;28;20036;-68
2022/06/29 08:22:30;;;;;;;2.03;1.55;;;;;;;24.54;42.87;101142.16;5053239;28;20039;-68
2022/06/29 08:24:55;;;;;;;1.55;1.45;;;;;;;24.60;42.84;101141.09;5052718;28;20045;-69
2022/06/29 08:27:22;;;;;;;1.40;1.30;;;;;;;24.62;42.58;101143.59;5053156;28;20387;-67
2022/06/29 08:29:48;;;;;;;1.50;1.40;;;;;;;24.61;42.98;101141.91;5052996;28;20035;-67
2022/06/29 08:32:14;;;;;;;1.45;1.33;;;;;;;24.59;43.13;101146.84;5052955;28;20029;-68
2022/06/29 08:34:39;;;;;;;1.45;1.35;;;;;;;24.61;43.04;101139.19;5054740;28;20474;-66
2022/06/29 08:37:05;;;;;;;1.55;1.45;;;;;;;24.60;43.21;101143.03;5060633;28;20017;-67
2022/06/29 08:39:30;;;;;;;1.30;1.20;;;;;;;24.59;43.25;101144.91;5072461;28;20040;-68
2022/06/29 08:41:56;;;;;;;1.45;1.35;;;;;;;24.63;43.30;101139.75;5072101;28;20335;-68
2022/06/29 08:44:22;;;;;;;1.40;1.30;;;;;;;24.58;43.37;101145.16;5073000;28;20025;-66
2022/06/29 08:46:47;;;;;;;1.35;1.25;;;;;;;24.59;43.50;101138.63;5072366;28;20459;-65
2022/06/29 08:49:13;;;;;;;1.60;1.50;;;;;;;24.62;43.72;101143.59;5072880;28;20032;-66
2022/06/29 08:51:38;;;;;;;1.63;1.52;;;;;;;24.64;43.73;101141.41;5072713;28;20109;-68
2022/06/29 08:54:06;;;;;;;1.60;1.50;;;;;;;24.65;43.87;101148.53;5071230;28;20028;-67
2022/06/29 08:56:31;;;;;;;1.90;1.75;;;;;;;24.65;43.79;101143.06;5071163;28;20108;-68
2022/06/29 08:58:57;;;;;;;3.38;1.70;;;;;;;24.69;44.03;101152.38;5071598;28;20055;-67
2022/06/29 09:01:23;;;;;;;2.38;1.67;;;;;;;24.65;43.71;101148.53;5071706;28;20362;-68
2022/06/29 09:03:48;;;;;;;2.00;1.88;;;;;;;24.66;43.96;101141.97;5073090;28;20038;-68
2022/06/29 09:06:13;;;;;;;4.50;1.75;;;;;;;24.65;44.02;101146.59;5071586;28;20224;-67
2022/06/29 09:08:39;;;;;;;1.75;1.65;;;;;;;24.64;44.36;101144.13;5072720;28;20032;-67
2022/06/29 09:11:43;;;;;;;1.45;1.35;;;;;;;24.75;44.14;101156.78;5072371;28;20024;-67
2022/06/29 09:14:13;;;;;;;22.93;9.90;;;;;;;24.67;44.39;101151.81;5030022;28;20033;-68
2022/06/29 09:16:51;;;;;;;25.60;9.57;;;;;;;24.75;44.10;101159.53;5030365;28;20037;-66
2022/06/29 09:19:16;;;;;;;32.08;12.32;;;;;;;24.82;43.95;101159.25;5030591;28;20033;-67
2022/06/29 09:21:45;;;;;;;20.55;8.18;;;;;;;24.76;44.45;101155.69;5029939;28;20506;-67
2022/06/29 09:24:22;;;;;;;21.17;9.23;;;;;;;24.82;44.19;101159.25;5029985;28;20068;-66
2022/06/29 09:26:54;;;;;;;64.32;23.25;;;;;;;24.79;44.26;101162.56;5030114;28;20040;-67
2022/06/29 09:29:29;;;;;;;37.88;16.15;;;;;;;24.83;44.39;101159.00;5013684;28;20035;-67
2022/06/29 09:32:07;;;;;;;26.75;9.57;;;;;;;24.75;44.81;101165.00;5030188;28;20469;-67
2022/06/29 09:34:33;;;;;;;16.98;6.65;;;;;;;24.76;44.44;101165.81;5029952;28;20608;-67
2022/06/29 09:37:00;;;;;;;12.88;5.50;;;;;;;24.80;44.52;101169.66;5023695;28;20050;-66
2022/06/29 09:39:52;;;;;;;12.05;5.00;;;;;;;24.84;44.57;101163.41;5010228;28;20231;-67
2022/06/29 09:42:22;;;;;;;13.00;5.82;;;;;;;24.80;44.61;101167.75;5010343;28;20084;-67
2022/06/29 09:44:48;;;;;;;8.98;4.65;;;;;;;24.82;44.68;101171.03;5010263;28;20037;-66
2022/06/29 09:47:19;;;;;;;9.65;3.88;;;;;;;24.81;44.99;101172.13;5016476;28;20095;-69
2022/06/29 09:49:46;;;;;;;5.50;3.58;;;;;;;24.79;44.96;101168.81;5051985;28;20036;-66
2022/06/29 09:52:12;;;;;;;5.55;3.40;;;;;;;24.85;44.83;101167.78;5053642;28;20037;-68
2022/06/29 09:54:57;;;;;;;3.97;2.70;;;;;;;24.87;44.89;101171.06;5055238;28;20025;-68
2022/06/29 09:57:30;;;;;;;5.25;2.90;;;;;;;24.81;45.13;101160.38;5055328;28;20052;-68
2022/06/29 10:02:50;;;;;;;4.30;2.30;;;;;;;24.85;45.19;101162.31;5055206;28;20179;-68
2022/06/29 10:05:17;;;;;;;4.60;2.38;;;;;;;24.89;45.01;101160.69;5055159;28;20539;-68
2022/06/29 10:07:46;;;;;;;4.30;2.35;;;;;;;24.85;45.05;101159.59;5054829;28;20428;-69
2022/06/29 10:10:14;;;;;;;2.35;2.15;;;;;;;24.89;45.02;101163.41;5053637;28;20062;-67
2022/06/29 10:15:55;;;;;;;2.53;2.05;;;;;;;24.88;45.50;101160.94;5055052;28;20129;-67
2022/06/29 10:18:29;;;;;;;2.92;2.00;;;;;;;24.86;45.94;101174.88;5055171;28;20032;-69
2022/06/29 10:20:54;;;;;;;4.07;2.10;;;;;;;24.84;45.67;101163.41;5054986;28;20044;-68
2022/06/29 10:23:42;;;;;;;2.58;2.10;;;;;;;24.91;45.60;101169.44;5054211;28;20359;-67
2022/06/29 10:26:30;;;;;;;2.13;1.80;;;;;;;24.91;45.56;101163.16;5054601;28;20502;-68
2022/06/29 10:29:05;;;;;;;2.10;1.90;;;;;;;24.89;45.77;101155.22;5054849;28;20025;-67
2022/06/29 10:31:59;;;;;;;2.03;1.90;;;;;;;24.88;45.73;101159.03;5054911;28;20067;-67
2022/06/29 10:34:31;;;;;;;2.88;2.00;;;;;;;24.90;45.57;101156.84;5054933;28;20051;-68
2022/06/29 10:37:02;;;;;;;2.28;2.08;;;;;;;24.96;45.67;101148.69;5059921;28;20052;-68
2022/06/29 10:39:48;;;;;;;2.50;1.88;;;;;;;24.99;45.15;101139.94;5074596;28;20029;-67
2022/06/29 10:45:14;;;;;;;2.10;1.92;;;;;;;24.88;45.87;101134.44;5074414;28;20446;-67
2022/06/29 10:47:55;;;;;;;1.90;1.70;;;;;;;24.96;45.66;101121.34;5074555;28;20043;-68
2022/06/29 10:50:24;;;;;;;2.17;1.95;;;;;;;24.86;45.85;101122.94;5074559;28;20024;-65
2022/06/29 10:53:22;;;;;;;2.08;1.90;;;;;;;24.96;45.47;101127.66;5074426;28;20071;-67
2022/06/29 10:55:50;;;;;;;2.25;1.67;;;;;;;25.06;45.36;101126.84;5051903;28;20033;-66
2022/06/29 10:58:17;;;;;;;2.75;1.65;;;;;;;24.97;45.39;101117.53;5051886;28;20086;-66
2022/06/29 11:00:53;;;;;;;1.70;1.60;;;;;;;24.98;45.89;101116.44;5052584;28;20037;-68
2022/06/29 11:03:23;;;;;;;2.08;1.95;;;;;;;24.93;45.83;101112.59;5052371;28;20490;-67
2022/06/29 11:14:04;;;;;;;2.17;1.98;;;;;;;24.98;45.79;101124.66;5051916;28;20509;-66
2022/06/29 11:16:36;;;;;;;2.05;1.90;;;;;;;25.01;45.57;101119.47;5051457;28;20029;-66
2022/06/29 11:19:02;;;;;;;1.80;1.70;;;;;;;24.96;45.59;101122.19;5051683;28;20526;-66
2022/06/29 11:21:30;;;;;;;2.63;2.40;;;;;;;24.98;45.94;101114.53;5051569;28;20036;-65
2022/06/29 11:24:03;;;;;;;2.03;1.80;;;;;;;24.98;46.02;101124.66;5051255;28;20460;-67
2022/06/29 11:26:29;;;;;;;3.35;2.20;;;;;;;24.96;45.82;101122.19;5051627;28;20037;-68
2022/06/29 11:28:57;;;;;;;2.70;2.20;;;;;;;24.93;45.73;101120.78;5051444;28;20025;-67
2022/06/29 11:31:22;;;;;;;3.53;2.28;;;;;;;24.93;46.16;101122.72;5038822;28;20036;-68
2022/06/29 11:33:49;;;;;;;2.90;2.30;;;;;;;24.97;45.82;101128.47;5073657;28;20375;-67
2022/06/29 11:36:23;;;;;;;2.55;2.30;;;;;;;24.98;46.10;101124.66;5073274;28;20020;-67
2022/06/29 11:38:49;;;;;;;;;;;;;;;25.17;45.55;101123.09;5053858;28;20079;-67
2022/06/29 11:41:26;;;;;;;2.95;2.20;;;;;;;25.07;45.59;101123.03;5053478;28;20259;-67
2022/06/29 11:44:02;;;;;;;3.22;2.38;;;;;;;25.10;45.60;101119.78;5052995;28;20021;-66
2022/06/29 11:46:29;;;;;;;2.58;2.30;;;;;;;25.03;45.50;101113.72;5053405;28;20370;-68
2022/06/29 11:51:52;;;;;;;3.70;2.35;;;;;;;25.06;45.63;101108.56;5053591;28;20032;-67